sensor_id;sensor_type;location;lat;lon;timestamp;temperature;humidity
28654;DHT22;24320;56.980;24.336;2022-11-20T00:01:18;-3.40;99.90
28654;DHT22;24320;56.980;24.336;2022-11-20T00:03:46;-3.50;99.90
28654;DHT22;24320;56.980;24.336;2022-11-20T00:06:15;-3.40;99.90
28654;DHT22;24320;56.980;24.336;2022-11-20T00:08:43;-3.40;99.90
28654;DHT22;24320;56.980;24.336;2022-11-20T00:11:12;-3.40;99.90
28654;DHT22;24320;56.980;24.336;2022-11-20T00:13:43;-3.40;99.90
28654;DHT22;24320;56.980;24.336;2022-11-20T00:16:12;-3.40;99.90
28654;DHT22;24320;56.980;24.336;2022-11-20T00:18:39;-3.40;99.90
28654;DHT22;24320;56.980;24.336;2022-11-20T00:21:10;-3.40;99.90
28654;DHT22;24320;56.980;24.336;2022-11-20T00:23:37;-3.40;99.90
28654;DHT22;24320;56.980;24.336;2022-11-20T00:26:05;-3.40;99.90
28654;DHT22;24320;56.980;24.336;2022-11-20T00:28:33;-3.30;99.90
28654;DHT22;24320;56.980;24.336;2022-11-20T00:31:05;-3.30;99.90
28654;DHT22;24320;56.980;24.336;2022-11-20T00:33:33;-3.40;99.90
28654;DHT22;24320;56.980;24.336;2022-11-20T00:36:02;-3.30;99.90
28654;DHT22;24320;56.980;24.336;2022-11-20T00:38:31;-3.30;99.90
28654;DHT22;24320;56.980;24.336;2022-11-20T00:41:00;-3.30;99.90
28654;DHT22;24320;56.980;24.336;2022-11-20T00:43:27;-3.30;99.90
28654;DHT22;24320;56.980;24.336;2022-11-20T00:48:25;-3.40;99.90
28654;DHT22;24320;56.980;24.336;2022-11-20T00:50:53;-3.40;99.90
28654;DHT22;24320;56.980;24.336;2022-11-20T00:53:20;-3.50;99.90
28654;DHT22;24320;56.980;24.336;2022-11-20T00:55:57;-3.60;99.90
28654;DHT22;24320;56.980;24.336;2022-11-20T00:58:29;-3.60;99.90
28654;DHT22;24320;56.980;24.336;2022-11-20T01:01:07;-3.70;99.90
28654;DHT22;24320;56.980;24.336;2022-11-20T01:03:40;-3.70;99.90
28654;DHT22;24320;56.980;24.336;2022-11-20T01:06:14;-3.80;99.90
28654;DHT22;24320;56.980;24.336;2022-11-20T01:08:42;-3.80;99.90
28654;DHT22;24320;56.980;24.336;2022-11-20T01:11:12;-3.80;99.90
28654;DHT22;24320;56.980;24.336;2022-11-20T01:13:39;-3.70;99.90
28654;DHT22;24320;56.980;24.336;2022-11-20T01:18:38;-3.70;99.90
28654;DHT22;24320;56.980;24.336;2022-11-20T01:21:09;-3.70;99.90
28654;DHT22;24320;56.980;24.336;2022-11-20T01:23:39;-3.70;99.90
28654;DHT22;24320;56.980;24.336;2022-11-20T01:26:09;-3.70;99.90
28654;DHT22;24320;56.980;24.336;2022-11-20T01:28:37;-3.70;99.90
28654;DHT22;24320;56.980;24.336;2022-11-20T01:31:13;-3.60;99.90
28654;DHT22;24320;56.980;24.336;2022-11-20T01:33:41;-3.60;99.90
28654;DHT22;24320;56.980;24.336;2022-11-20T01:36:09;-3.70;99.90
28654;DHT22;24320;56.980;24.336;2022-11-20T01:38:37;-3.70;99.90
28654;DHT22;24320;56.980;24.336;2022-11-20T01:41:04;-3.70;99.90
28654;DHT22;24320;56.980;24.336;2022-11-20T01:43:32;-3.60;99.90
28654;DHT22;24320;56.980;24.336;2022-11-20T01:51:21;-3.60;99.90
28654;DHT22;24320;56.980;24.336;2022-11-20T01:53:52;-3.60;99.90
28654;DHT22;24320;56.980;24.336;2022-11-20T01:56:21;-3.60;99.90
28654;DHT22;24320;56.980;24.336;2022-11-20T01:58:52;-3.60;99.90
28654;DHT22;24320;56.980;24.336;2022-11-20T02:01:21;-3.60;99.90
28654;DHT22;24320;56.980;24.336;2022-11-20T02:03:49;-3.60;99.90
28654;DHT22;24320;56.980;24.336;2022-11-20T02:06:59;-3.60;99.90
28654;DHT22;24320;56.980;24.336;2022-11-20T02:09:27;-3.70;99.90
28654;DHT22;24320;56.980;24.336;2022-11-20T02:11:55;-3.70;99.90
28654;DHT22;24320;56.980;24.336;2022-11-20T02:14:22;-3.70;99.90
28654;DHT22;24320;56.980;24.336;2022-11-20T02:16:50;-3.70;99.90
28654;DHT22;24320;56.980;24.336;2022-11-20T02:19:27;-3.70;99.90
28654;DHT22;24320;56.980;24.336;2022-11-20T02:21:57;-3.70;99.90
28654;DHT22;24320;56.980;24.336;2022-11-20T02:24:26;-3.70;99.90
28654;DHT22;24320;56.980;24.336;2022-11-20T02:27:06;-3.70;99.90
28654;DHT22;24320;56.980;24.336;2022-11-20T02:32:04;-3.70;99.90
28654;DHT22;24320;56.980;24.336;2022-11-20T02:34:31;-3.70;99.90
28654;DHT22;24320;56.980;24.336;2022-11-20T02:36:59;-3.70;99.90
28654;DHT22;24320;56.980;24.336;2022-11-20T02:39:27;-3.70;99.90
28654;DHT22;24320;56.980;24.336;2022-11-20T02:41:56;-3.70;99.90
28654;DHT22;24320;56.980;24.336;2022-11-20T02:44:23;-3.70;99.90
28654;DHT22;24320;56.980;24.336;2022-11-20T02:46:50;-3.70;99.90
28654;DHT22;24320;56.980;24.336;2022-11-20T02:49:17;-3.70;99.90
28654;DHT22;24320;56.980;24.336;2022-11-20T02:51:44;-3.60;99.90
28654;DHT22;24320;56.980;24.336;2022-11-20T02:54:11;-3.60;99.90
28654;DHT22;24320;56.980;24.336;2022-11-20T02:56:39;-3.70;99.90
28654;DHT22;24320;56.980;24.336;2022-11-20T02:59:06;-3.60;99.90
28654;DHT22;24320;56.980;24.336;2022-11-20T03:01:33;-3.60;99.90
28654;DHT22;24320;56.980;24.336;2022-11-20T03:04:01;-3.70;99.90
28654;DHT22;24320;56.980;24.336;2022-11-20T03:06:28;-3.70;99.90
28654;DHT22;24320;56.980;24.336;2022-11-20T03:08:55;-3.60;99.90
28654;DHT22;24320;56.980;24.336;2022-11-20T03:11:22;-3.70;99.90
28654;DHT22;24320;56.980;24.336;2022-11-20T03:13:49;-3.70;99.90
28654;DHT22;24320;56.980;24.336;2022-11-20T03:16:19;-3.70;99.90
28654;DHT22;24320;56.980;24.336;2022-11-20T03:18:47;-3.70;99.90
28654;DHT22;24320;56.980;24.336;2022-11-20T03:21:14;-3.70;99.90
28654;DHT22;24320;56.980;24.336;2022-11-20T03:23:42;-3.70;99.90
28654;DHT22;24320;56.980;24.336;2022-11-20T03:26:19;-3.80;99.90
28654;DHT22;24320;56.980;24.336;2022-11-20T03:28:48;-3.70;99.90
28654;DHT22;24320;56.980;24.336;2022-11-20T03:31:16;-3.80;99.90
28654;DHT22;24320;56.980;24.336;2022-11-20T03:33:43;-3.80;99.90
28654;DHT22;24320;56.980;24.336;2022-11-20T03:36:13;-3.80;99.90
28654;DHT22;24320;56.980;24.336;2022-11-20T03:38:40;-3.80;99.90
28654;DHT22;24320;56.980;24.336;2022-11-20T03:41:10;-3.80;99.90
28654;DHT22;24320;56.980;24.336;2022-11-20T03:43:38;-3.80;99.90
28654;DHT22;24320;56.980;24.336;2022-11-20T03:46:06;-3.80;99.90
28654;DHT22;24320;56.980;24.336;2022-11-20T03:48:33;-3.80;99.90
28654;DHT22;24320;56.980;24.336;2022-11-20T03:51:10;-3.80;99.90
28654;DHT22;24320;56.980;24.336;2022-11-20T03:53:38;-3.90;99.90
28654;DHT22;24320;56.980;24.336;2022-11-20T03:56:05;-3.90;99.90
28654;DHT22;24320;56.980;24.336;2022-11-20T03:58:34;-3.90;99.90
28654;DHT22;24320;56.980;24.336;2022-11-20T04:03:35;-4.00;99.90
28654;DHT22;24320;56.980;24.336;2022-11-20T04:06:08;-4.00;99.90
28654;DHT22;24320;56.980;24.336;2022-11-20T04:08:35;-4.00;99.90
28654;DHT22;24320;56.980;24.336;2022-11-20T04:13:37;-4.10;99.90
28654;DHT22;24320;56.980;24.336;2022-11-20T04:16:05;-4.10;99.90
28654;DHT22;24320;56.980;24.336;2022-11-20T04:18:33;-4.10;99.90
28654;DHT22;24320;56.980;24.336;2022-11-20T04:21:00;-4.10;99.90
28654;DHT22;24320;56.980;24.336;2022-11-20T04:23:27;-4.10;99.90
28654;DHT22;24320;56.980;24.336;2022-11-20T04:25:54;-4.10;99.90
28654;DHT22;24320;56.980;24.336;2022-11-20T04:28:21;-4.20;99.90
28654;DHT22;24320;56.980;24.336;2022-11-20T04:30:48;-4.20;99.90
28654;DHT22;24320;56.980;24.336;2022-11-20T04:33:15;-4.20;99.90
28654;DHT22;24320;56.980;24.336;2022-11-20T04:35:43;-4.20;99.90
28654;DHT22;24320;56.980;24.336;2022-11-20T04:38:11;-4.20;99.90
28654;DHT22;24320;56.980;24.336;2022-11-20T04:40:37;-4.20;99.90
28654;DHT22;24320;56.980;24.336;2022-11-20T04:43:04;-4.30;99.90
28654;DHT22;24320;56.980;24.336;2022-11-20T04:45:31;-4.30;99.90
28654;DHT22;24320;56.980;24.336;2022-11-20T04:47:58;-4.30;99.90
28654;DHT22;24320;56.980;24.336;2022-11-20T04:50:25;-4.30;99.90
28654;DHT22;24320;56.980;24.336;2022-11-20T04:52:52;-4.30;99.90
28654;DHT22;24320;56.980;24.336;2022-11-20T04:55:19;-4.40;99.90
28654;DHT22;24320;56.980;24.336;2022-11-20T04:57:50;-4.40;99.90
28654;DHT22;24320;56.980;24.336;2022-11-20T05:00:17;-4.40;99.90
28654;DHT22;24320;56.980;24.336;2022-11-20T05:02:44;-4.40;99.90
28654;DHT22;24320;56.980;24.336;2022-11-20T05:05:11;-4.40;99.90
28654;DHT22;24320;56.980;24.336;2022-11-20T05:07:38;-4.40;99.90
28654;DHT22;24320;56.980;24.336;2022-11-20T05:10:05;-4.30;99.90
28654;DHT22;24320;56.980;24.336;2022-11-20T05:12:32;-4.30;99.90
28654;DHT22;24320;56.980;24.336;2022-11-20T05:14:59;-4.30;99.90
28654;DHT22;24320;56.980;24.336;2022-11-20T05:17:26;-4.30;99.90
28654;DHT22;24320;56.980;24.336;2022-11-20T05:19:53;-4.30;99.90
28654;DHT22;24320;56.980;24.336;2022-11-20T05:22:20;-4.20;99.90
28654;DHT22;24320;56.980;24.336;2022-11-20T05:24:47;-4.20;99.90
28654;DHT22;24320;56.980;24.336;2022-11-20T05:27:14;-4.30;99.90
28654;DHT22;24320;56.980;24.336;2022-11-20T05:29:41;-4.20;99.90
28654;DHT22;24320;56.980;24.336;2022-11-20T05:32:08;-4.30;99.90
28654;DHT22;24320;56.980;24.336;2022-11-20T05:34:36;-4.30;99.90
28654;DHT22;24320;56.980;24.336;2022-11-20T05:37:03;-4.30;99.90
28654;DHT22;24320;56.980;24.336;2022-11-20T05:39:30;-4.30;99.90
28654;DHT22;24320;56.980;24.336;2022-11-20T05:41:57;-4.30;99.90
28654;DHT22;24320;56.980;24.336;2022-11-20T05:44:42;-4.20;99.90
28654;DHT22;24320;56.980;24.336;2022-11-20T05:47:09;-4.30;99.90
28654;DHT22;24320;56.980;24.336;2022-11-20T05:49:36;-4.20;99.90
28654;DHT22;24320;56.980;24.336;2022-11-20T05:52:03;-4.20;99.90
28654;DHT22;24320;56.980;24.336;2022-11-20T05:54:30;-4.20;99.90
28654;DHT22;24320;56.980;24.336;2022-11-20T05:56:57;-4.20;99.90
28654;DHT22;24320;56.980;24.336;2022-11-20T05:59:24;-4.20;99.90
28654;DHT22;24320;56.980;24.336;2022-11-20T06:01:51;-4.20;99.90
28654;DHT22;24320;56.980;24.336;2022-11-20T06:04:18;-4.20;99.90
28654;DHT22;24320;56.980;24.336;2022-11-20T06:06:45;-4.20;99.90
28654;DHT22;24320;56.980;24.336;2022-11-20T06:09:12;-4.20;99.90
28654;DHT22;24320;56.980;24.336;2022-11-20T06:11:39;-4.10;99.90
28654;DHT22;24320;56.980;24.336;2022-11-20T06:14:06;-4.10;99.90
28654;DHT22;24320;56.980;24.336;2022-11-20T06:16:33;-4.10;99.90
28654;DHT22;24320;56.980;24.336;2022-11-20T06:19:00;-4.10;99.90
28654;DHT22;24320;56.980;24.336;2022-11-20T06:21:27;-4.10;99.90
28654;DHT22;24320;56.980;24.336;2022-11-20T06:23:54;-4.10;99.90
28654;DHT22;24320;56.980;24.336;2022-11-20T06:26:23;-4.10;99.90
28654;DHT22;24320;56.980;24.336;2022-11-20T06:28:51;-4.00;99.90
28654;DHT22;24320;56.980;24.336;2022-11-20T06:31:20;-4.00;99.90
28654;DHT22;24320;56.980;24.336;2022-11-20T06:33:48;-4.00;99.90
28654;DHT22;24320;56.980;24.336;2022-11-20T06:36:17;-3.90;99.90
28654;DHT22;24320;56.980;24.336;2022-11-20T06:38:44;-3.90;99.90
28654;DHT22;24320;56.980;24.336;2022-11-20T06:41:14;-3.80;99.90
28654;DHT22;24320;56.980;24.336;2022-11-20T06:43:42;-3.70;99.90
28654;DHT22;24320;56.980;24.336;2022-11-20T06:46:10;-3.70;99.90
28654;DHT22;24320;56.980;24.336;2022-11-20T06:48:38;-3.60;99.90
28654;DHT22;24320;56.980;24.336;2022-11-20T06:51:06;-3.60;99.90
28654;DHT22;24320;56.980;24.336;2022-11-20T06:53:34;-3.50;99.90
28654;DHT22;24320;56.980;24.336;2022-11-20T06:56:01;-3.30;99.90
28654;DHT22;24320;56.980;24.336;2022-11-20T06:58:30;-3.20;99.90
28654;DHT22;24320;56.980;24.336;2022-11-20T07:00:59;-3.00;99.90
28654;DHT22;24320;56.980;24.336;2022-11-20T07:03:26;-2.90;99.90
28654;DHT22;24320;56.980;24.336;2022-11-20T07:05:57;-2.70;99.90
28654;DHT22;24320;56.980;24.336;2022-11-20T07:08:25;-2.60;99.90
28654;DHT22;24320;56.980;24.336;2022-11-20T07:10:52;-2.50;99.90
28654;DHT22;24320;56.980;24.336;2022-11-20T07:13:20;-2.40;99.90
28654;DHT22;24320;56.980;24.336;2022-11-20T07:15:47;-2.30;99.90
28654;DHT22;24320;56.980;24.336;2022-11-20T07:18:13;-2.30;99.90
28654;DHT22;24320;56.980;24.336;2022-11-20T07:20:40;-2.20;99.90
28654;DHT22;24320;56.980;24.336;2022-11-20T07:23:07;-2.20;99.90
28654;DHT22;24320;56.980;24.336;2022-11-20T07:25:34;-2.20;99.90
28654;DHT22;24320;56.980;24.336;2022-11-20T07:28:02;-2.20;99.90
28654;DHT22;24320;56.980;24.336;2022-11-20T07:30:30;-2.30;99.90
28654;DHT22;24320;56.980;24.336;2022-11-20T07:32:57;-2.40;99.90
28654;DHT22;24320;56.980;24.336;2022-11-20T07:35:25;-2.50;99.90
28654;DHT22;24320;56.980;24.336;2022-11-20T07:37:52;-2.50;99.90
28654;DHT22;24320;56.980;24.336;2022-11-20T07:40:19;-2.50;99.90
28654;DHT22;24320;56.980;24.336;2022-11-20T07:42:50;-2.60;99.90
28654;DHT22;24320;56.980;24.336;2022-11-20T07:45:19;-2.70;99.90
28654;DHT22;24320;56.980;24.336;2022-11-20T07:47:46;-2.70;99.90
28654;DHT22;24320;56.980;24.336;2022-11-20T07:50:14;-2.70;99.90
28654;DHT22;24320;56.980;24.336;2022-11-20T07:52:41;-2.70;99.90
28654;DHT22;24320;56.980;24.336;2022-11-20T07:55:09;-2.80;99.90
28654;DHT22;24320;56.980;24.336;2022-11-20T07:57:36;-2.70;99.90
28654;DHT22;24320;56.980;24.336;2022-11-20T08:00:04;-2.70;99.90
28654;DHT22;24320;56.980;24.336;2022-11-20T08:02:31;-2.80;99.90
28654;DHT22;24320;56.980;24.336;2022-11-20T08:04:58;-2.80;99.90
28654;DHT22;24320;56.980;24.336;2022-11-20T08:07:25;-3.00;99.90
28654;DHT22;24320;56.980;24.336;2022-11-20T08:09:52;-3.00;99.90
28654;DHT22;24320;56.980;24.336;2022-11-20T08:12:20;-3.10;99.90
28654;DHT22;24320;56.980;24.336;2022-11-20T08:15:07;-3.10;99.90
28654;DHT22;24320;56.980;24.336;2022-11-20T08:17:39;-3.10;99.90
28654;DHT22;24320;56.980;24.336;2022-11-20T08:20:06;-3.10;99.90
28654;DHT22;24320;56.980;24.336;2022-11-20T08:22:33;-3.00;99.90
28654;DHT22;24320;56.980;24.336;2022-11-20T08:25:00;-3.00;99.90
28654;DHT22;24320;56.980;24.336;2022-11-20T08:27:27;-2.90;99.90
28654;DHT22;24320;56.980;24.336;2022-11-20T08:29:54;-2.80;99.90
28654;DHT22;24320;56.980;24.336;2022-11-20T08:32:21;-2.70;99.90
28654;DHT22;24320;56.980;24.336;2022-11-20T08:34:48;-2.60;99.90
28654;DHT22;24320;56.980;24.336;2022-11-20T08:37:15;-2.50;99.90
28654;DHT22;24320;56.980;24.336;2022-11-20T08:39:42;-2.50;99.90
28654;DHT22;24320;56.980;24.336;2022-11-20T08:42:09;-2.40;99.90
28654;DHT22;24320;56.980;24.336;2022-11-20T08:44:36;-2.40;99.90
28654;DHT22;24320;56.980;24.336;2022-11-20T08:47:03;-2.40;99.90
28654;DHT22;24320;56.980;24.336;2022-11-20T08:49:30;-2.40;99.90
28654;DHT22;24320;56.980;24.336;2022-11-20T08:51:57;-2.40;99.90
28654;DHT22;24320;56.980;24.336;2022-11-20T08:54:24;-2.40;99.90
28654;DHT22;24320;56.980;24.336;2022-11-20T08:56:51;-2.40;99.90
28654;DHT22;24320;56.980;24.336;2022-11-20T08:59:18;-2.40;99.90
28654;DHT22;24320;56.980;24.336;2022-11-20T09:02:05;-2.40;99.90
28654;DHT22;24320;56.980;24.336;2022-11-20T09:04:32;-2.40;99.90
28654;DHT22;24320;56.980;24.336;2022-11-20T09:07:00;-2.40;99.90
28654;DHT22;24320;56.980;24.336;2022-11-20T09:09:27;-2.30;99.90
28654;DHT22;24320;56.980;24.336;2022-11-20T09:11:54;-2.40;99.90
28654;DHT22;24320;56.980;24.336;2022-11-20T09:14:21;-2.40;99.90
28654;DHT22;24320;56.980;24.336;2022-11-20T09:16:51;-2.50;99.90
28654;DHT22;24320;56.980;24.336;2022-11-20T09:19:18;-2.40;99.90
28654;DHT22;24320;56.980;24.336;2022-11-20T09:22:01;-2.30;99.90
28654;DHT22;24320;56.980;24.336;2022-11-20T09:24:28;-2.30;99.90
28654;DHT22;24320;56.980;24.336;2022-11-20T09:26:55;-2.30;99.90
28654;DHT22;24320;56.980;24.336;2022-11-20T09:29:22;-2.30;99.90
28654;DHT22;24320;56.980;24.336;2022-11-20T09:31:49;-2.30;99.90
28654;DHT22;24320;56.980;24.336;2022-11-20T10:32:39;-2.10;99.90
28654;DHT22;24320;56.980;24.336;2022-11-20T10:36:05;-2.10;99.90
28654;DHT22;24320;56.980;24.336;2022-11-20T10:38:08;-1.90;99.90
28654;DHT22;24320;56.980;24.336;2022-11-20T10:40:42;-1.80;99.90
28654;DHT22;24320;56.980;24.336;2022-11-20T10:43:18;-1.80;99.90
28654;DHT22;24320;56.980;24.336;2022-11-20T10:45:57;-1.80;99.90
28654;DHT22;24320;56.980;24.336;2022-11-20T10:48:26;-1.80;99.90
28654;DHT22;24320;56.980;24.336;2022-11-20T10:53:59;-1.80;99.90
28654;DHT22;24320;56.980;24.336;2022-11-20T10:56:46;-1.90;99.90
28654;DHT22;24320;56.980;24.336;2022-11-20T11:02:20;-1.80;99.90
28654;DHT22;24320;56.980;24.336;2022-11-20T11:04:51;-1.80;99.90
28654;DHT22;24320;56.980;24.336;2022-11-20T11:07:40;-1.90;99.90
28654;DHT22;24320;56.980;24.336;2022-11-20T11:12:45;-1.80;99.90
28654;DHT22;24320;56.980;24.336;2022-11-20T11:15:37;-1.90;99.90
28654;DHT22;24320;56.980;24.336;2022-11-20T11:18:02;-2.10;99.90
28654;DHT22;24320;56.980;24.336;2022-11-20T11:20:29;-2.10;99.90
28654;DHT22;24320;56.980;24.336;2022-11-20T11:22:58;-2.10;99.90
28654;DHT22;24320;56.980;24.336;2022-11-20T11:25:31;-2.10;99.90
28654;DHT22;24320;56.980;24.336;2022-11-20T11:28:21;-2.00;99.90
28654;DHT22;24320;56.980;24.336;2022-11-20T11:30:48;-2.00;99.90
28654;DHT22;24320;56.980;24.336;2022-11-20T11:38:38;-2.10;99.90
28654;DHT22;24320;56.980;24.336;2022-11-20T11:41:06;-2.20;99.90
28654;DHT22;24320;56.980;24.336;2022-11-20T11:43:36;-2.10;99.90
28654;DHT22;24320;56.980;24.336;2022-11-20T11:46:32;-2.00;99.90
28654;DHT22;24320;56.980;24.336;2022-11-20T11:54:51;-2.30;99.90
28654;DHT22;24320;56.980;24.336;2022-11-20T12:00:19;-2.30;99.90
28654;DHT22;24320;56.980;24.336;2022-11-20T12:05:18;-2.30;99.90
28654;DHT22;24320;56.980;24.336;2022-11-20T12:11:13;-2.30;99.90
28654;DHT22;24320;56.980;24.336;2022-11-20T12:16:14;-2.20;99.90
28654;DHT22;24320;56.980;24.336;2022-11-20T12:18:42;-2.30;99.90
28654;DHT22;24320;56.980;24.336;2022-11-20T12:24:00;-2.50;99.90
28654;DHT22;24320;56.980;24.336;2022-11-20T12:40:53;-3.10;99.90
28654;DHT22;24320;56.980;24.336;2022-11-20T12:43:29;-3.20;99.90
28654;DHT22;24320;56.980;24.336;2022-11-20T12:57:34;-3.40;99.90
28654;DHT22;24320;56.980;24.336;2022-11-20T13:00:08;-3.40;99.90
28654;DHT22;24320;56.980;24.336;2022-11-20T13:07:43;-3.60;99.90
28654;DHT22;24320;56.980;24.336;2022-11-20T13:10:20;-3.60;99.90
28654;DHT22;24320;56.980;24.336;2022-11-20T13:13:00;-3.60;99.90
28654;DHT22;24320;56.980;24.336;2022-11-20T13:15:50;-3.60;99.90
28654;DHT22;24320;56.980;24.336;2022-11-20T13:18:19;-3.60;99.90
28654;DHT22;24320;56.980;24.336;2022-11-20T13:20:46;-3.60;99.90
28654;DHT22;24320;56.980;24.336;2022-11-20T13:23:25;-3.70;99.90
28654;DHT22;24320;56.980;24.336;2022-11-20T13:26:25;-3.80;99.90
28654;DHT22;24320;56.980;24.336;2022-11-20T13:29:11;-3.90;99.90
28654;DHT22;24320;56.980;24.336;2022-11-20T13:31:45;-4.00;99.90
28654;DHT22;24320;56.980;24.336;2022-11-20T13:34:24;-4.10;99.90
28654;DHT22;24320;56.980;24.336;2022-11-20T13:36:57;-4.10;99.90
28654;DHT22;24320;56.980;24.336;2022-11-20T13:39:30;-4.20;99.90
28654;DHT22;24320;56.980;24.336;2022-11-20T13:42:25;-4.20;99.90
28654;DHT22;24320;56.980;24.336;2022-11-20T13:44:54;-4.20;99.90
28654;DHT22;24320;56.980;24.336;2022-11-20T13:47:26;-4.30;99.90
28654;DHT22;24320;56.980;24.336;2022-11-20T13:49:55;-4.30;99.90
28654;DHT22;24320;56.980;24.336;2022-11-20T14:00:31;-4.20;99.90
28654;DHT22;24320;56.980;24.336;2022-11-20T14:03:16;-4.20;99.90
28654;DHT22;24320;56.980;24.336;2022-11-20T14:05:55;-4.20;99.90
28654;DHT22;24320;56.980;24.336;2022-11-20T14:11:15;-4.20;99.90
28654;DHT22;24320;56.980;24.336;2022-11-20T14:16:24;-4.20;99.90
28654;DHT22;24320;56.980;24.336;2022-11-20T14:18:51;-4.20;99.90
28654;DHT22;24320;56.980;24.336;2022-11-20T14:21:26;-4.20;99.90
28654;DHT22;24320;56.980;24.336;2022-11-20T14:24:14;-4.20;99.90
28654;DHT22;24320;56.980;24.336;2022-11-20T14:26:46;-4.20;99.90
28654;DHT22;24320;56.980;24.336;2022-11-20T14:29:21;-4.30;99.90
28654;DHT22;24320;56.980;24.336;2022-11-20T14:31:54;-4.20;99.90
28654;DHT22;24320;56.980;24.336;2022-11-20T14:34:25;-4.20;99.90
28654;DHT22;24320;56.980;24.336;2022-11-20T14:36:58;-4.10;99.90
28654;DHT22;24320;56.980;24.336;2022-11-20T14:39:36;-4.20;99.90
28654;DHT22;24320;56.980;24.336;2022-11-20T14:42:18;-4.10;99.90
28654;DHT22;24320;56.980;24.336;2022-11-20T14:44:45;-4.10;99.90
28654;DHT22;24320;56.980;24.336;2022-11-20T14:47:15;-4.10;99.90
28654;DHT22;24320;56.980;24.336;2022-11-20T14:49:44;-4.10;99.90
28654;DHT22;24320;56.980;24.336;2022-11-20T14:52:16;-4.10;99.90
28654;DHT22;24320;56.980;24.336;2022-11-20T14:54:44;-4.10;99.90
28654;DHT22;24320;56.980;24.336;2022-11-20T14:57:32;-4.00;99.90
28654;DHT22;24320;56.980;24.336;2022-11-20T15:00:19;-4.10;99.90
28654;DHT22;24320;56.980;24.336;2022-11-20T15:02:49;-4.00;99.90
28654;DHT22;24320;56.980;24.336;2022-11-20T15:05:18;-4.00;99.90
28654;DHT22;24320;56.980;24.336;2022-11-20T15:07:48;-4.00;99.90
28654;DHT22;24320;56.980;24.336;2022-11-20T15:10:24;-4.10;99.90
28654;DHT22;24320;56.980;24.336;2022-11-20T15:13:03;-4.10;99.90
28654;DHT22;24320;56.980;24.336;2022-11-20T15:15:52;-4.10;99.90
28654;DHT22;24320;56.980;24.336;2022-11-20T15:18:23;-4.20;99.90
28654;DHT22;24320;56.980;24.336;2022-11-20T15:20:55;-4.20;99.90
28654;DHT22;24320;56.980;24.336;2022-11-20T15:23:23;-4.20;99.90
28654;DHT22;24320;56.980;24.336;2022-11-20T15:25:52;-4.20;99.90
28654;DHT22;24320;56.980;24.336;2022-11-20T15:28:31;-4.20;99.90
28654;DHT22;24320;56.980;24.336;2022-11-20T15:30:58;-4.20;99.90
28654;DHT22;24320;56.980;24.336;2022-11-20T15:33:25;-4.20;99.90
28654;DHT22;24320;56.980;24.336;2022-11-20T15:35:52;-4.20;99.90
28654;DHT22;24320;56.980;24.336;2022-11-20T15:38:19;-4.20;99.90
28654;DHT22;24320;56.980;24.336;2022-11-20T15:40:46;-4.20;99.90
28654;DHT22;24320;56.980;24.336;2022-11-20T15:43:13;-4.20;99.90
28654;DHT22;24320;56.980;24.336;2022-11-20T15:45:51;-4.30;99.90
28654;DHT22;24320;56.980;24.336;2022-11-20T15:48:20;-4.30;99.90
28654;DHT22;24320;56.980;24.336;2022-11-20T15:50:56;-4.30;99.90
28654;DHT22;24320;56.980;24.336;2022-11-20T15:53:24;-4.30;99.90
28654;DHT22;24320;56.980;24.336;2022-11-20T15:55:51;-4.30;99.90
28654;DHT22;24320;56.980;24.336;2022-11-20T15:58:18;-4.30;99.90
28654;DHT22;24320;56.980;24.336;2022-11-20T16:00:45;-4.30;99.90
28654;DHT22;24320;56.980;24.336;2022-11-20T16:03:14;-4.30;99.90
28654;DHT22;24320;56.980;24.336;2022-11-20T16:05:42;-4.20;99.90
28654;DHT22;24320;56.980;24.336;2022-11-20T16:08:09;-4.20;99.90
28654;DHT22;24320;56.980;24.336;2022-11-20T16:10:38;-4.20;99.90
28654;DHT22;24320;56.980;24.336;2022-11-20T16:13:11;-4.20;99.90
28654;DHT22;24320;56.980;24.336;2022-11-20T16:15:59;-4.20;99.90
28654;DHT22;24320;56.980;24.336;2022-11-20T16:18:31;-4.30;99.90
28654;DHT22;24320;56.980;24.336;2022-11-20T16:20:58;-4.20;99.90
28654;DHT22;24320;56.980;24.336;2022-11-20T16:23:25;-4.30;99.90
28654;DHT22;24320;56.980;24.336;2022-11-20T16:25:52;-4.30;99.90
28654;DHT22;24320;56.980;24.336;2022-11-20T16:28:19;-4.30;99.90
28654;DHT22;24320;56.980;24.336;2022-11-20T16:30:46;-4.30;99.90
28654;DHT22;24320;56.980;24.336;2022-11-20T16:33:17;-4.30;99.90
28654;DHT22;24320;56.980;24.336;2022-11-20T16:35:44;-4.30;99.90
28654;DHT22;24320;56.980;24.336;2022-11-20T16:38:11;-4.30;99.90
28654;DHT22;24320;56.980;24.336;2022-11-20T16:40:38;-4.40;99.90
28654;DHT22;24320;56.980;24.336;2022-11-20T16:43:10;-4.40;99.90
28654;DHT22;24320;56.980;24.336;2022-11-20T16:45:42;-4.40;99.90
28654;DHT22;24320;56.980;24.336;2022-11-20T16:48:15;-4.40;99.90
28654;DHT22;24320;56.980;24.336;2022-11-20T16:50:47;-4.40;99.90
28654;DHT22;24320;56.980;24.336;2022-11-20T16:53:16;-4.40;99.90
28654;DHT22;24320;56.980;24.336;2022-11-20T16:55:43;-4.50;99.90
28654;DHT22;24320;56.980;24.336;2022-11-20T16:58:10;-4.50;99.90
28654;DHT22;24320;56.980;24.336;2022-11-20T17:00:41;-4.50;99.90
28654;DHT22;24320;56.980;24.336;2022-11-20T17:03:15;-4.50;99.90
28654;DHT22;24320;56.980;24.336;2022-11-20T17:05:43;-4.60;99.90
28654;DHT22;24320;56.980;24.336;2022-11-20T17:08:10;-4.60;99.90
28654;DHT22;24320;56.980;24.336;2022-11-20T17:10:37;-4.60;99.90
28654;DHT22;24320;56.980;24.336;2022-11-20T17:13:04;-4.60;99.90
28654;DHT22;24320;56.980;24.336;2022-11-20T17:15:31;-4.60;99.90
28654;DHT22;24320;56.980;24.336;2022-11-20T17:17:58;-4.60;99.90
28654;DHT22;24320;56.980;24.336;2022-11-20T17:20:25;-4.60;99.90
28654;DHT22;24320;56.980;24.336;2022-11-20T17:22:52;-4.50;99.90
28654;DHT22;24320;56.980;24.336;2022-11-20T17:25:18;-4.50;99.90
28654;DHT22;24320;56.980;24.336;2022-11-20T17:27:45;-4.50;99.90
28654;DHT22;24320;56.980;24.336;2022-11-20T17:30:12;-4.50;99.90
28654;DHT22;24320;56.980;24.336;2022-11-20T17:32:39;-4.50;99.90
28654;DHT22;24320;56.980;24.336;2022-11-20T17:35:11;-4.40;99.90
28654;DHT22;24320;56.980;24.336;2022-11-20T17:37:38;-4.40;99.90
28654;DHT22;24320;56.980;24.336;2022-11-20T17:40:05;-4.40;99.90
28654;DHT22;24320;56.980;24.336;2022-11-20T17:42:32;-4.40;99.90
28654;DHT22;24320;56.980;24.336;2022-11-20T17:45:03;-4.40;99.90
28654;DHT22;24320;56.980;24.336;2022-11-20T17:47:30;-4.30;99.90
28654;DHT22;24320;56.980;24.336;2022-11-20T17:49:57;-4.30;99.90
28654;DHT22;24320;56.980;24.336;2022-11-20T17:52:24;-4.30;99.90
28654;DHT22;24320;56.980;24.336;2022-11-20T17:54:51;-4.30;99.90
28654;DHT22;24320;56.980;24.336;2022-11-20T17:57:22;-4.30;99.90
28654;DHT22;24320;56.980;24.336;2022-11-20T18:00:08;-4.30;99.90
28654;DHT22;24320;56.980;24.336;2022-11-20T18:02:36;-4.20;99.90
28654;DHT22;24320;56.980;24.336;2022-11-20T18:05:03;-4.20;99.90
28654;DHT22;24320;56.980;24.336;2022-11-20T18:07:30;-4.20;99.90